Main page
METAR-TAF:

METAR-TAF

Airports :

Bandar Abbas International Airport

Bandar Abbas, Iran

latitude: 27-13N, longitude: 056-22E, elevation: 10 m

Current weather observation

The report was made 39 minutes ago, at 05:00 UTC
Wind 6 kt from the South/Southeast
Temperature 35°C
Humidity 63%
Pressure 999 hPa
Visibility: 4000 m
haze

METAR: OIKB 150500Z 15006KT 4000 HZ NSC 35/27 Q0998 A2949 NOSIG

Time: 10:09 (05:39 UTC)

Forecast

The report was made 39 minutes ago, at 05:00 UTC
Forecast valid from 15 at 06 UTC to 16 at 12 UTC
Wind 8 kt from the South
Visibility: 4000 m
Few clouds at a height of 2500 ft
haze
Temporary
from 15 at 08 UTC to 15 at 13 UTC
Wind 17 kt from the South
Becoming
from 15 at 16 UTC to 15 at 18 UTC
Wind 8 kt from the Northeast
Temporary
from 16 at 00 UTC to 16 at 04 UTC
Visibility: 3000 m
mist

TAF: OIKB 150500Z 1506/1612 17004MPS 4000 HZ FEW025 TEMPO 1508/1513 17009MPS BECMG 1516/1518 05004MPS TEMPO 1600/1604 3000 BR

Weather observations and forecasts of more than 4000 airports (METAR and TAF reports).

The available stations are represented by yellow and red dots on the map.

Hover mouse over dot to see the name of the station.

Then click to see weather observations and forecasts.

To change the map : click on the green buttons with a black cross to zoom in, on the green button with a dash to zoom out, or on the green arrows for adjacent maps.


METAR-TAF: